sensor_id;sensor_type;location;lat;lon;timestamp;pressure;altitude;pressure_sealevel;temperature;humidity
23339;BME280;11841;49.368;20.962;2023-07-16T00:00:50;95850.94;;;18.74;84.30
23339;BME280;11841;49.368;20.962;2023-07-16T00:03:36;95846.09;;;18.71;84.46
23339;BME280;11841;49.368;20.962;2023-07-16T00:06:21;95852.81;;;18.69;84.39
23339;BME280;11841;49.368;20.962;2023-07-16T00:09:06;95864.91;;;18.66;84.36
23339;BME280;11841;49.368;20.962;2023-07-16T00:11:52;95849.81;;;18.60;84.45
23339;BME280;11841;49.368;20.962;2023-07-16T00:14:37;95858.97;;;18.59;84.28
23339;BME280;11841;49.368;20.962;2023-07-16T00:17:22;95851.94;;;18.53;84.44
23339;BME280;11841;49.368;20.962;2023-07-16T00:20:08;95849.78;;;18.50;84.27
23339;BME280;11841;49.368;20.962;2023-07-16T00:22:54;95841.72;;;18.45;84.58
23339;BME280;11841;49.368;20.962;2023-07-16T00:25:40;95844.09;;;18.42;84.54
23339;BME280;11841;49.368;20.962;2023-07-16T00:28:25;95845.41;;;18.39;84.19
23339;BME280;11841;49.368;20.962;2023-07-16T00:31:10;95848.59;;;18.36;84.21
23339;BME280;11841;49.368;20.962;2023-07-16T00:33:56;95841.91;;;18.34;84.44
23339;BME280;11841;49.368;20.962;2023-07-16T00:36:41;95837.06;;;18.31;84.55
23339;BME280;11841;49.368;20.962;2023-07-16T00:39:28;95837.81;;;18.26;84.52
23339;BME280;11841;49.368;20.962;2023-07-16T00:42:13;95838.91;;;18.25;84.38
23339;BME280;11841;49.368;20.962;2023-07-16T00:44:58;95837.00;;;18.21;85.28
23339;BME280;11841;49.368;20.962;2023-07-16T00:47:44;95835.66;;;18.18;85.10
23339;BME280;11841;49.368;20.962;2023-07-16T00:50:30;95832.41;;;18.16;85.25
23339;BME280;11841;49.368;20.962;2023-07-16T00:53:20;95843.66;;;18.13;84.96
23339;BME280;11841;49.368;20.962;2023-07-16T00:56:07;95830.22;;;18.08;86.02
23339;BME280;11841;49.368;20.962;2023-07-16T00:58:53;95830.75;;;18.05;86.08
23339;BME280;11841;49.368;20.962;2023-07-16T01:01:39;95828.84;;;18.05;85.55
23339;BME280;11841;49.368;20.962;2023-07-16T01:04:24;95833.41;;;18.00;86.34
23339;BME280;11841;49.368;20.962;2023-07-16T01:07:11;95829.34;;;17.97;86.08
23339;BME280;11841;49.368;20.962;2023-07-16T01:09:59;95812.69;;;17.90;86.79
23339;BME280;11841;49.368;20.962;2023-07-16T01:12:45;95814.56;;;17.90;86.40
23339;BME280;11841;49.368;20.962;2023-07-16T01:15:30;95810.25;;;17.89;86.52
23339;BME280;11841;49.368;20.962;2023-07-16T01:18:15;95807.03;;;17.87;87.33
23339;BME280;11841;49.368;20.962;2023-07-16T01:21:01;95805.97;;;17.88;88.17
23339;BME280;11841;49.368;20.962;2023-07-16T01:30:15;95803.25;;;17.78;87.19
23339;BME280;11841;49.368;20.962;2023-07-16T01:33:03;95804.56;;;17.80;86.38
23339;BME280;11841;49.368;20.962;2023-07-16T01:35:50;95800.56;;;17.78;86.88
23339;BME280;11841;49.368;20.962;2023-07-16T01:38:36;95794.09;;;17.74;86.93
23339;BME280;11841;49.368;20.962;2023-07-16T01:41:22;95795.16;;;17.73;86.84
23339;BME280;11841;49.368;20.962;2023-07-16T01:44:07;95789.81;;;17.73;86.93
23339;BME280;11841;49.368;20.962;2023-07-16T01:47:11;95792.47;;;17.73;87.26
23339;BME280;11841;49.368;20.962;2023-07-16T01:49:58;95798.34;;;17.70;86.85
23339;BME280;11841;49.368;20.962;2023-07-16T01:52:44;95790.81;;;17.67;86.51
23339;BME280;11841;49.368;20.962;2023-07-16T01:55:29;95794.56;;;17.66;86.37
23339;BME280;11841;49.368;20.962;2023-07-16T01:58:14;95787.06;;;17.63;86.79
23339;BME280;11841;49.368;20.962;2023-07-16T02:00:59;95786.75;;;17.59;86.99
23339;BME280;11841;49.368;20.962;2023-07-16T02:03:45;95793.19;;;17.58;86.32
23339;BME280;11841;49.368;20.962;2023-07-16T02:06:30;95794.25;;;17.57;86.20
23339;BME280;11841;49.368;20.962;2023-07-16T02:09:15;95792.88;;;17.55;86.04
23339;BME280;11841;49.368;20.962;2023-07-16T02:12:01;95793.13;;;17.53;86.17
23339;BME280;11841;49.368;20.962;2023-07-16T02:14:46;95790.97;;;17.50;85.89
23339;BME280;11841;49.368;20.962;2023-07-16T02:17:32;95789.09;;;17.46;85.91
23339;BME280;11841;49.368;20.962;2023-07-16T02:20:17;95788.50;;;17.44;85.64
23339;BME280;11841;49.368;20.962;2023-07-16T02:23:02;95781.75;;;17.41;85.69
23339;BME280;11841;49.368;20.962;2023-07-16T02:25:48;95786.34;;;17.41;85.60
23339;BME280;11841;49.368;20.962;2023-07-16T02:28:33;95769.16;;;17.37;85.38
23339;BME280;11841;49.368;20.962;2023-07-16T02:31:18;95782.81;;;17.35;85.39
23339;BME280;11841;49.368;20.962;2023-07-16T02:34:04;95780.66;;;17.32;85.55
23339;BME280;11841;49.368;20.962;2023-07-16T02:36:49;95780.09;;;17.30;85.64
23339;BME280;11841;49.368;20.962;2023-07-16T02:39:35;95781.38;;;17.28;85.81
23339;BME280;11841;49.368;20.962;2023-07-16T02:42:20;95774.13;;;17.23;85.51
23339;BME280;11841;49.368;20.962;2023-07-16T02:45:06;95775.44;;;17.21;85.35
23339;BME280;11841;49.368;20.962;2023-07-16T02:47:51;95790.44;;;17.17;85.54
23339;BME280;11841;49.368;20.962;2023-07-16T02:50:37;95784.22;;;17.11;85.74
23339;BME280;11841;49.368;20.962;2023-07-16T02:53:23;95784.47;;;17.10;86.10
23339;BME280;11841;49.368;20.962;2023-07-16T02:56:08;95790.66;;;17.10;85.97
23339;BME280;11841;49.368;20.962;2023-07-16T02:58:53;95782.88;;;17.09;86.02
23339;BME280;11841;49.368;20.962;2023-07-16T03:01:39;95783.91;;;17.08;85.77
23339;BME280;11841;49.368;20.962;2023-07-16T03:04:24;95773.72;;;17.05;86.61
23339;BME280;11841;49.368;20.962;2023-07-16T03:07:09;95782.53;;;17.00;86.66
23339;BME280;11841;49.368;20.962;2023-07-16T03:09:55;95783.81;;;16.98;86.61
23339;BME280;11841;49.368;20.962;2023-07-16T03:12:40;95788.38;;;16.97;86.67
23339;BME280;11841;49.368;20.962;2023-07-16T03:15:25;95785.69;;;16.97;86.67
23339;BME280;11841;49.368;20.962;2023-07-16T03:18:10;95791.03;;;16.97;86.84
23339;BME280;11841;49.368;20.962;2023-07-16T03:20:57;95787.84;;;16.95;87.54
23339;BME280;11841;49.368;20.962;2023-07-16T03:23:43;95785.38;;;16.93;87.54
23339;BME280;11841;49.368;20.962;2023-07-16T03:26:28;95782.19;;;16.92;87.31
23339;BME280;11841;49.368;20.962;2023-07-16T03:29:13;95787.53;;;16.92;87.33
23339;BME280;11841;49.368;20.962;2023-07-16T03:31:59;95787.53;;;16.92;87.54
23339;BME280;11841;49.368;20.962;2023-07-16T03:34:44;95787.53;;;16.92;87.70
23339;BME280;11841;49.368;20.962;2023-07-16T03:37:29;95787.53;;;16.92;88.04
23339;BME280;11841;49.368;20.962;2023-07-16T03:40:18;95792.06;;;16.91;88.69
23339;BME280;11841;49.368;20.962;2023-07-16T03:43:04;95787.03;;;16.95;88.88
23339;BME280;11841;49.368;20.962;2023-07-16T03:45:49;95785.38;;;16.93;89.67
23339;BME280;11841;49.368;20.962;2023-07-16T03:48:35;95795.63;;;16.97;89.46
23339;BME280;11841;49.368;20.962;2023-07-16T03:51:21;95791.31;;;16.96;89.71
23339;BME280;11841;49.368;20.962;2023-07-16T03:54:06;95787.31;;;16.98;89.64
23339;BME280;11841;49.368;20.962;2023-07-16T03:56:51;95798.34;;;17.02;89.61
23339;BME280;11841;49.368;20.962;2023-07-16T03:59:37;95797.81;;;17.05;89.97
23339;BME280;11841;49.368;20.962;2023-07-16T04:02:23;95793.53;;;17.04;90.62
23339;BME280;11841;49.368;20.962;2023-07-16T04:05:09;95796.22;;;17.04;91.11
23339;BME280;11841;49.368;20.962;2023-07-16T04:07:54;95799.13;;;17.02;92.58
23339;BME280;11841;49.368;20.962;2023-07-16T04:10:39;95791.94;;;17.08;92.33
23339;BME280;11841;49.368;20.962;2023-07-16T04:13:25;95792.00;;;17.13;92.77
23339;BME280;11841;49.368;20.962;2023-07-16T04:16:10;95787.19;;;17.15;93.89
23339;BME280;11841;49.368;20.962;2023-07-16T04:18:56;95799.03;;;17.19;94.06
23339;BME280;11841;49.368;20.962;2023-07-16T04:21:41;95788.09;;;17.25;93.33
23339;BME280;11841;49.368;20.962;2023-07-16T04:24:26;95796.97;;;17.31;93.69
23339;BME280;11841;49.368;20.962;2023-07-16T04:27:12;95794.09;;;17.37;93.66
23339;BME280;11841;49.368;20.962;2023-07-16T04:29:57;95793.31;;;17.42;94.21
23339;BME280;11841;49.368;20.962;2023-07-16T04:32:42;95780.97;;;17.41;96.11
23339;BME280;11841;49.368;20.962;2023-07-16T04:35:27;95790.91;;;17.45;96.71
23339;BME280;11841;49.368;20.962;2023-07-16T04:38:13;95788.03;;;17.52;97.60
23339;BME280;11841;49.368;20.962;2023-07-16T04:40:58;95788.63;;;17.59;98.18
23339;BME280;11841;49.368;20.962;2023-07-16T04:43:44;95792.94;;;17.65;98.53
23339;BME280;11841;49.368;20.962;2023-07-16T04:46:29;95788.16;;;17.72;99.04
23339;BME280;11841;49.368;20.962;2023-07-16T04:49:15;95795.97;;;17.78;99.93
23339;BME280;11841;49.368;20.962;2023-07-16T04:52:00;95797.38;;;17.86;99.36
23339;BME280;11841;49.368;20.962;2023-07-16T04:54:45;95791.50;;;17.94;99.17
23339;BME280;11841;49.368;20.962;2023-07-16T04:57:32;95797.47;;;18.01;99.63
23339;BME280;11841;49.368;20.962;2023-07-16T05:00:18;95795.34;;;18.08;100.00
23339;BME280;11841;49.368;20.962;2023-07-16T05:03:03;95803.97;;;18.15;100.00
23339;BME280;11841;49.368;20.962;2023-07-16T05:05:48;95810.47;;;18.24;100.00
23339;BME280;11841;49.368;20.962;2023-07-16T05:08:35;95798.41;;;18.32;100.00
23339;BME280;11841;49.368;20.962;2023-07-16T05:11:20;95795.25;;;18.40;100.00
23339;BME280;11841;49.368;20.962;2023-07-16T05:14:05;95811.91;;;18.47;100.00
23339;BME280;11841;49.368;20.962;2023-07-16T05:16:51;95809.78;;;18.54;100.00
23339;BME280;11841;49.368;20.962;2023-07-16T05:19:36;95808.50;;;18.61;100.00
23339;BME280;11841;49.368;20.962;2023-07-16T05:22:22;95801.50;;;18.70;100.00
23339;BME280;11841;49.368;20.962;2023-07-16T05:25:08;95810.41;;;18.81;100.00
23339;BME280;11841;49.368;20.962;2023-07-16T05:27:54;95801.53;;;18.90;100.00
23339;BME280;11841;49.368;20.962;2023-07-16T05:30:39;95809.09;;;18.98;100.00
23339;BME280;11841;49.368;20.962;2023-07-16T05:33:24;95814.50;;;19.08;100.00
23339;BME280;11841;49.368;20.962;2023-07-16T05:36:09;95812.09;;;19.17;100.00
23339;BME280;11841;49.368;20.962;2023-07-16T05:38:55;95811.28;;;19.26;100.00
23339;BME280;11841;49.368;20.962;2023-07-16T05:41:40;95810.53;;;19.36;100.00
23339;BME280;11841;49.368;20.962;2023-07-16T05:44:26;95809.16;;;19.49;100.00
23339;BME280;11841;49.368;20.962;2023-07-16T05:47:11;95807.53;;;19.63;100.00
23339;BME280;11841;49.368;20.962;2023-07-16T05:49:57;95809.13;;;19.74;100.00
23339;BME280;11841;49.368;20.962;2023-07-16T05:52:42;95816.13;;;19.85;100.00
23339;BME280;11841;49.368;20.962;2023-07-16T05:55:27;95817.16;;;19.94;100.00
23339;BME280;11841;49.368;20.962;2023-07-16T05:58:13;95821.44;;;20.10;100.00
23339;BME280;11841;49.368;20.962;2023-07-16T06:00:58;95824.66;;;20.22;100.00
23339;BME280;11841;49.368;20.962;2023-07-16T06:03:43;95817.66;;;20.31;100.00
23339;BME280;11841;49.368;20.962;2023-07-16T06:06:31;95824.56;;;20.47;100.00
23339;BME280;11841;49.368;20.962;2023-07-16T06:09:16;95817.25;;;20.58;100.00
23339;BME280;11841;49.368;20.962;2023-07-16T06:12:02;95809.41;;;20.66;99.50
23339;BME280;11841;49.368;20.962;2023-07-16T06:14:47;95805.31;;;20.74;99.20
23339;BME280;11841;49.368;20.962;2023-07-16T06:17:32;95800.34;;;20.96;99.14
23339;BME280;11841;49.368;20.962;2023-07-16T06:20:18;95804.34;;;21.08;97.46
23339;BME280;11841;49.368;20.962;2023-07-16T06:23:03;95812.31;;;21.23;96.83
23339;BME280;11841;49.368;20.962;2023-07-16T06:25:53;95807.28;;;21.45;96.64
23339;BME280;11841;49.368;20.962;2023-07-16T06:28:39;95809.63;;;21.57;94.76
23339;BME280;11841;49.368;20.962;2023-07-16T06:31:24;95809.28;;;21.63;94.32
23339;BME280;11841;49.368;20.962;2023-07-16T06:34:10;95793.03;;;21.79;93.83
23339;BME280;11841;49.368;20.962;2023-07-16T06:36:56;95797.09;;;22.00;92.07
23339;BME280;11841;49.368;20.962;2023-07-16T06:39:41;95800.69;;;22.19;90.05
23339;BME280;11841;49.368;20.962;2023-07-16T06:42:27;95793.28;;;22.29;89.21
23339;BME280;11841;49.368;20.962;2023-07-16T06:45:12;95789.50;;;22.54;86.28
23339;BME280;11841;49.368;20.962;2023-07-16T06:47:57;95797.41;;;22.69;84.56
23339;BME280;11841;49.368;20.962;2023-07-16T06:50:43;95800.13;;;22.88;85.07
23339;BME280;11841;49.368;20.962;2023-07-16T06:53:28;95802.91;;;23.01;80.83
23339;BME280;11841;49.368;20.962;2023-07-16T06:56:13;95805.19;;;23.13;79.66
23339;BME280;11841;49.368;20.962;2023-07-16T06:58:59;95802.19;;;23.14;77.76
23339;BME280;11841;49.368;20.962;2023-07-16T07:01:44;95802.72;;;23.35;74.95
23339;BME280;11841;49.368;20.962;2023-07-16T07:04:30;95795.91;;;23.37;73.76
23339;BME280;11841;49.368;20.962;2023-07-16T07:07:15;95794.81;;;23.38;76.15
23339;BME280;11841;49.368;20.962;2023-07-16T07:10:01;95804.38;;;23.49;76.08
23339;BME280;11841;49.368;20.962;2023-07-16T07:12:46;95803.81;;;23.66;73.95
23339;BME280;11841;49.368;20.962;2023-07-16T07:15:32;95795.84;;;23.88;70.29
23339;BME280;11841;49.368;20.962;2023-07-16T07:18:17;95793.41;;;24.05;69.96
23339;BME280;11841;49.368;20.962;2023-07-16T07:21:03;95797.13;;;24.09;69.79
23339;BME280;11841;49.368;20.962;2023-07-16T07:23:49;95791.91;;;24.13;69.25
23339;BME280;11841;49.368;20.962;2023-07-16T07:26:34;95797.34;;;24.26;68.79
23339;BME280;11841;49.368;20.962;2023-07-16T07:29:19;95796.75;;;24.43;68.87
23339;BME280;11841;49.368;20.962;2023-07-16T07:32:05;95794.94;;;24.52;67.35
23339;BME280;11841;49.368;20.962;2023-07-16T07:34:51;95793.31;;;24.64;65.34
23339;BME280;11841;49.368;20.962;2023-07-16T07:37:36;95802.84;;;24.89;63.93
23339;BME280;11841;49.368;20.962;2023-07-16T07:40:21;95794.38;;;25.04;64.19
23339;BME280;11841;49.368;20.962;2023-07-16T07:43:07;95788.97;;;25.04;65.79
23339;BME280;11841;49.368;20.962;2023-07-16T07:45:53;95793.56;;;25.03;65.73
23339;BME280;11841;49.368;20.962;2023-07-16T07:48:38;95781.78;;;25.08;64.90
23339;BME280;11841;49.368;20.962;2023-07-16T07:51:24;95780.19;;;25.07;65.44
23339;BME280;11841;49.368;20.962;2023-07-16T07:54:09;95786.13;;;25.09;65.85
23339;BME280;11841;49.368;20.962;2023-07-16T07:56:54;95793.66;;;25.12;66.80
23339;BME280;11841;49.368;20.962;2023-07-16T07:59:39;95785.41;;;25.17;65.35
23339;BME280;11841;49.368;20.962;2023-07-16T08:02:25;95786.56;;;25.38;64.31
23339;BME280;11841;49.368;20.962;2023-07-16T08:05:10;95794.22;;;25.58;62.50
23339;BME280;11841;49.368;20.962;2023-07-16T08:07:55;95791.06;;;25.65;62.39
23339;BME280;11841;49.368;20.962;2023-07-16T08:10:42;95792.25;;;25.72;62.25
23339;BME280;11841;49.368;20.962;2023-07-16T08:13:28;95795.59;;;25.78;61.83
23339;BME280;11841;49.368;20.962;2023-07-16T08:16:13;95801.84;;;25.78;62.25
23339;BME280;11841;49.368;20.962;2023-07-16T08:18:59;95781.47;;;25.89;60.07
23339;BME280;11841;49.368;20.962;2023-07-16T08:21:44;95793.06;;;26.03;60.20
23339;BME280;11841;49.368;20.962;2023-07-16T08:24:29;95791.56;;;26.19;58.90
23339;BME280;11841;49.368;20.962;2023-07-16T08:27:15;95775.63;;;26.27;59.91
23339;BME280;11841;49.368;20.962;2023-07-16T08:30:01;95786.50;;;26.27;59.53
23339;BME280;11841;49.368;20.962;2023-07-16T08:32:46;95793.25;;;26.38;57.43
23339;BME280;11841;49.368;20.962;2023-07-16T08:35:31;95788.94;;;26.37;57.83
23339;BME280;11841;49.368;20.962;2023-07-16T08:38:16;95799.66;;;26.42;59.63
23339;BME280;11841;49.368;20.962;2023-07-16T08:41:02;95802.22;;;26.47;58.75
23339;BME280;11841;49.368;20.962;2023-07-16T08:43:47;95794.75;;;26.52;57.72
23339;BME280;11841;49.368;20.962;2023-07-16T08:46:33;95796.84;;;26.64;57.65
23339;BME280;11841;49.368;20.962;2023-07-16T08:49:19;95797.34;;;26.66;59.19
23339;BME280;11841;49.368;20.962;2023-07-16T08:52:07;95797.84;;;26.68;58.05
23339;BME280;11841;49.368;20.962;2023-07-16T08:54:55;95799.97;;;26.79;58.08
23339;BME280;11841;49.368;20.962;2023-07-16T08:57:40;95799.34;;;26.91;58.79
23339;BME280;11841;49.368;20.962;2023-07-16T09:00:28;95801.28;;;26.99;57.90
23339;BME280;11841;49.368;20.962;2023-07-16T09:03:15;95798.41;;;27.12;57.39
23339;BME280;11841;49.368;20.962;2023-07-16T09:06:04;95786.88;;;27.15;57.33
23339;BME280;11841;49.368;20.962;2023-07-16T09:08:49;95800.16;;;27.17;58.19
23339;BME280;11841;49.368;20.962;2023-07-16T09:11:35;95794.72;;;27.17;58.80
23339;BME280;11841;49.368;20.962;2023-07-16T09:14:20;95800.06;;;27.39;58.13
23339;BME280;11841;49.368;20.962;2023-07-16T09:17:06;95798.78;;;27.45;55.90
23339;BME280;11841;49.368;20.962;2023-07-16T09:19:51;95789.81;;;27.53;56.95
23339;BME280;11841;49.368;20.962;2023-07-16T09:22:37;95801.50;;;27.62;56.38
23339;BME280;11841;49.368;20.962;2023-07-16T09:25:29;95808.53;;;27.63;55.92
23339;BME280;11841;49.368;20.962;2023-07-16T09:28:18;95799.09;;;27.69;56.29
23339;BME280;11841;49.368;20.962;2023-07-16T09:31:05;95805.31;;;27.78;55.79
23339;BME280;11841;49.368;20.962;2023-07-16T09:33:51;95800.84;;;27.82;55.11
23339;BME280;11841;49.368;20.962;2023-07-16T09:36:37;95804.81;;;27.85;54.99
23339;BME280;11841;49.368;20.962;2023-07-16T09:39:22;95797.94;;;27.87;55.83
23339;BME280;11841;49.368;20.962;2023-07-16T09:42:08;95806.59;;;27.98;55.56
23339;BME280;11841;49.368;20.962;2023-07-16T09:44:54;95799.38;;;28.02;55.55
23339;BME280;11841;49.368;20.962;2023-07-16T09:47:41;95803.22;;;28.09;55.85
23339;BME280;11841;49.368;20.962;2023-07-16T09:50:28;95804.63;;;28.15;55.53
23339;BME280;11841;49.368;20.962;2023-07-16T09:53:15;95810.88;;;28.16;56.35
23339;BME280;11841;49.368;20.962;2023-07-16T09:56:04;95803.81;;;28.23;56.45
23339;BME280;11841;49.368;20.962;2023-07-16T09:58:51;95805.06;;;28.26;54.08
23339;BME280;11841;49.368;20.962;2023-07-16T10:01:39;95806.97;;;28.34;54.01
23339;BME280;11841;49.368;20.962;2023-07-16T10:04:25;95798.44;;;28.44;54.22
23339;BME280;11841;49.368;20.962;2023-07-16T10:07:25;95799.03;;;28.49;53.67
23339;BME280;11841;49.368;20.962;2023-07-16T10:10:11;95803.72;;;28.58;52.66
23339;BME280;11841;49.368;20.962;2023-07-16T10:13:07;95797.13;;;28.59;52.67
23339;BME280;11841;49.368;20.962;2023-07-16T10:15:55;95800.50;;;28.56;51.63
23339;BME280;11841;49.368;20.962;2023-07-16T10:18:50;95798.53;;;28.65;52.46
23339;BME280;11841;49.368;20.962;2023-07-16T10:21:38;95808.91;;;28.80;51.12
23339;BME280;11841;49.368;20.962;2023-07-16T10:24:27;95797.28;;;28.91;50.68
23339;BME280;11841;49.368;20.962;2023-07-16T10:27:15;95800.59;;;28.97;50.63
23339;BME280;11841;49.368;20.962;2023-07-16T10:30:11;95798.13;;;29.04;51.21
23339;BME280;11841;49.368;20.962;2023-07-16T10:32:56;95797.16;;;29.08;51.02
23339;BME280;11841;49.368;20.962;2023-07-16T10:35:44;95787.84;;;29.09;51.00
23339;BME280;11841;49.368;20.962;2023-07-16T10:38:29;95793.25;;;29.18;52.06
23339;BME280;11841;49.368;20.962;2023-07-16T10:41:15;95791.41;;;29.30;51.55
23339;BME280;11841;49.368;20.962;2023-07-16T10:44:00;95793.94;;;29.35;50.81
23339;BME280;11841;49.368;20.962;2023-07-16T10:46:45;95795.66;;;29.40;51.56
23339;BME280;11841;49.368;20.962;2023-07-16T10:49:31;95787.94;;;29.42;49.04
23339;BME280;11841;49.368;20.962;2023-07-16T10:52:16;95786.13;;;29.46;49.46
23339;BME280;11841;49.368;20.962;2023-07-16T10:55:02;95792.19;;;29.51;50.27
23339;BME280;11841;49.368;20.962;2023-07-16T10:57:48;95790.06;;;29.57;50.54
23339;BME280;11841;49.368;20.962;2023-07-16T11:00:38;95784.84;;;29.64;48.00
23339;BME280;11841;49.368;20.962;2023-07-16T11:03:24;95772.19;;;29.59;49.72
23339;BME280;11841;49.368;20.962;2023-07-16T11:06:10;95772.94;;;29.69;49.75
23339;BME280;11841;49.368;20.962;2023-07-16T11:09:06;95769.91;;;29.82;49.26
23339;BME280;11841;49.368;20.962;2023-07-16T11:11:51;95773.84;;;29.93;48.04
23339;BME280;11841;49.368;20.962;2023-07-16T11:14:38;95772.13;;;30.01;50.00
23339;BME280;11841;49.368;20.962;2023-07-16T11:17:24;95772.03;;;30.09;50.40
23339;BME280;11841;49.368;20.962;2023-07-16T11:20:12;95770.47;;;30.20;49.11
23339;BME280;11841;49.368;20.962;2023-07-16T11:22:58;95769.38;;;30.33;48.98
23339;BME280;11841;49.368;20.962;2023-07-16T11:25:46;95773.47;;;30.39;48.26
23339;BME280;11841;49.368;20.962;2023-07-16T11:28:39;95768.94;;;30.43;47.68
23339;BME280;11841;49.368;20.962;2023-07-16T11:31:25;95768.94;;;30.55;48.20
23339;BME280;11841;49.368;20.962;2023-07-16T11:34:13;95779.88;;;30.67;47.70
23339;BME280;11841;49.368;20.962;2023-07-16T11:37:09;95776.91;;;30.72;45.85
23339;BME280;11841;49.368;20.962;2023-07-16T11:39:56;95775.09;;;30.64;44.35
23339;BME280;11841;49.368;20.962;2023-07-16T11:42:43;95769.84;;;30.47;46.61
23339;BME280;11841;49.368;20.962;2023-07-16T11:45:28;95770.97;;;30.34;47.03
23339;BME280;11841;49.368;20.962;2023-07-16T11:48:13;95766.88;;;30.28;49.19
23339;BME280;11841;49.368;20.962;2023-07-16T11:50:59;95767.53;;;30.25;50.24
23339;BME280;11841;49.368;20.962;2023-07-16T11:53:44;95768.75;;;30.16;52.92
23339;BME280;11841;49.368;20.962;2023-07-16T11:56:29;95763.03;;;30.21;52.78
23339;BME280;11841;49.368;20.962;2023-07-16T11:59:16;95760.81;;;30.35;51.99
23339;BME280;11841;49.368;20.962;2023-07-16T12:02:05;95757.97;;;30.43;51.70
23339;BME280;11841;49.368;20.962;2023-07-16T12:04:51;95765.38;;;30.55;50.60
23339;BME280;11841;49.368;20.962;2023-07-16T12:07:37;95760.97;;;30.62;51.67
23339;BME280;11841;49.368;20.962;2023-07-16T12:10:22;95760.25;;;30.65;51.59
23339;BME280;11841;49.368;20.962;2023-07-16T12:13:08;95766.66;;;30.69;51.12
23339;BME280;11841;49.368;20.962;2023-07-16T12:15:53;95775.34;;;30.59;50.25
23339;BME280;11841;49.368;20.962;2023-07-16T12:18:39;95770.41;;;30.53;52.81
23339;BME280;11841;49.368;20.962;2023-07-16T12:21:24;95772.00;;;30.54;51.77
23339;BME280;11841;49.368;20.962;2023-07-16T12:24:10;95780.22;;;30.54;51.14
23339;BME280;11841;49.368;20.962;2023-07-16T12:26:55;95777.38;;;30.50;52.71
23339;BME280;11841;49.368;20.962;2023-07-16T12:29:41;95771.19;;;30.41;54.50
23339;BME280;11841;49.368;20.962;2023-07-16T12:32:26;95774.59;;;30.26;52.29
23339;BME280;11841;49.368;20.962;2023-07-16T12:35:11;95778.69;;;30.20;53.38
23339;BME280;11841;49.368;20.962;2023-07-16T12:37:56;95766.59;;;30.21;56.56
23339;BME280;11841;49.368;20.962;2023-07-16T12:40:43;95775.28;;;30.23;56.31
23339;BME280;11841;49.368;20.962;2023-07-16T12:43:28;95765.94;;;30.24;54.00
23339;BME280;11841;49.368;20.962;2023-07-16T12:46:13;95764.00;;;30.25;55.86
23339;BME280;11841;49.368;20.962;2023-07-16T12:48:59;95766.59;;;30.21;55.44
23339;BME280;11841;49.368;20.962;2023-07-16T12:51:45;95767.09;;;30.23;55.95
23339;BME280;11841;49.368;20.962;2023-07-16T12:54:30;95768.31;;;30.26;54.99
23339;BME280;11841;49.368;20.962;2023-07-16T12:57:17;95765.94;;;30.24;54.13
23339;BME280;11841;49.368;20.962;2023-07-16T13:00:03;95765.66;;;30.17;53.70
23339;BME280;11841;49.368;20.962;2023-07-16T13:02:50;95765.88;;;30.12;53.75
23339;BME280;11841;49.368;20.962;2023-07-16T13:05:35;95775.56;;;30.10;57.32
23339;BME280;11841;49.368;20.962;2023-07-16T13:08:21;95772.84;;;30.10;61.05
23339;BME280;11841;49.368;20.962;2023-07-16T13:11:06;95771.56;;;30.07;62.29
23339;BME280;11841;49.368;20.962;2023-07-16T13:13:52;95774.97;;;30.04;62.98
23339;BME280;11841;49.368;20.962;2023-07-16T13:16:37;95770.88;;;29.98;61.27
23339;BME280;11841;49.368;20.962;2023-07-16T13:19:23;95772.00;;;29.97;62.09
23339;BME280;11841;49.368;20.962;2023-07-16T13:22:08;95775.88;;;29.96;64.17
23339;BME280;11841;49.368;20.962;2023-07-16T13:24:53;95767.56;;;29.93;64.62
23339;BME280;11841;49.368;20.962;2023-07-16T13:27:38;95778.38;;;29.89;65.29
23339;BME280;11841;49.368;20.962;2023-07-16T13:30:24;95769.22;;;29.85;65.66
23339;BME280;11841;49.368;20.962;2023-07-16T13:33:11;95774.47;;;29.78;60.82
23339;BME280;11841;49.368;20.962;2023-07-16T13:35:56;95767.84;;;29.79;61.02
23339;BME280;11841;49.368;20.962;2023-07-16T13:38:42;95776.06;;;29.79;59.86
23339;BME280;11841;49.368;20.962;2023-07-16T13:41:27;95766.00;;;29.71;59.74
23339;BME280;11841;49.368;20.962;2023-07-16T13:44:12;95767.13;;;29.70;59.13
23339;BME280;11841;49.368;20.962;2023-07-16T13:46:58;95769.53;;;29.72;61.58
23339;BME280;11841;49.368;20.962;2023-07-16T13:49:43;95765.69;;;29.73;63.59
23339;BME280;11841;49.368;20.962;2023-07-16T13:52:28;95774.66;;;29.73;64.86
23339;BME280;11841;49.368;20.962;2023-07-16T13:55:14;95765.69;;;29.73;65.95
23339;BME280;11841;49.368;20.962;2023-07-16T13:57:59;95763.94;;;29.68;65.42
23339;BME280;11841;49.368;20.962;2023-07-16T14:00:45;95766.84;;;29.63;65.78
23339;BME280;11841;49.368;20.962;2023-07-16T14:03:30;95762.06;;;29.60;66.16
23339;BME280;11841;49.368;20.962;2023-07-16T14:06:15;95759.53;;;29.55;64.50
23339;BME280;11841;49.368;20.962;2023-07-16T14:09:01;95761.78;;;29.53;63.59
23339;BME280;11841;49.368;20.962;2023-07-16T14:11:48;95763.00;;;29.64;62.00
23339;BME280;11841;49.368;20.962;2023-07-16T14:14:33;95747.91;;;29.79;58.76
23339;BME280;11841;49.368;20.962;2023-07-16T14:17:20;95759.00;;;29.94;58.91
23339;BME280;11841;49.368;20.962;2023-07-16T14:20:06;95751.44;;;30.12;56.04
23339;BME280;11841;49.368;20.962;2023-07-16T14:22:52;95755.81;;;30.25;53.38
23339;BME280;11841;49.368;20.962;2023-07-16T14:25:38;95748.66;;;30.32;52.35
23339;BME280;11841;49.368;20.962;2023-07-16T14:28:23;95754.91;;;30.45;52.96
23339;BME280;11841;49.368;20.962;2023-07-16T14:31:08;95752.06;;;30.53;52.41
23339;BME280;11841;49.368;20.962;2023-07-16T14:33:54;95758.69;;;30.64;51.20